SPHO/AYP METAR and TAF weather

Enter ICAO airport designator
Station Type Date Time Source
SPHO METAR 2018/12/11 20:00 UTC NOAA

SPHO 112000Z 30004KT 240V020 9999 FEW060 BKN250 25/03 Q1026 RMK PP000


Station Type Date Time Source
SPHO Decoded METAR 2018/12/11 20:00 UTC NOAA

Ayacucho, Peru (SPHO) 13-08S 074-13W 2749M
Dec 11, 2018 - 03:00 PM EST / 2018.12.11 2000 UTC
Wind: from the WNW (300 degrees) at 5 MPH (4 KT) (direction variable):0
Visibility: greater than 7 mile(s):0
Sky conditions: mostly cloudy
Temperature: 77 F (25 C)
Dew Point: 37 F (3 C)
Relative Humidity: 23%
Pressure (altimeter): 30.30 in. Hg (1026 hPa)
ob: SPHO 112000Z 30004KT 240V020 9999 FEW060 BKN250 25/03 Q1026 RMK PP000
cycle: 20

Station Type Date Time Source
SPHO TAF 2018/12/11 18:33 UTC NOAA

SPHO 111700Z 1118/1218 VRB04KT 9999 FEW040 TX28/1119Z TN10/1211Z
TEMPO 1118/1122 09012KT


Example: see airport list